Time;durP1;ratioP1;P1;durP2;ratioP2;P2;SDS_P1;SDS_P2;PMS_P1;PMS_P2;Temp;Humidity;BMP_temperature;BMP_pressure;BME280_temperature;BME280_humidity;BME280_pressure;Samples;Min_cycle;Max_cycle;Signal;HPM_P1;HPM_P2
2021/04/18 00:00:18;;;;;;;8.00;4.13;;;;;;;;;;5115961;27;20043;-60
2021/04/18 00:02:45;;;;;;;8.63;4.20;;;;;;;;;;5116354;28;20443;-59
2021/04/18 00:05:13;;;;;;;7.32;4.20;;;;;;;;;;5116421;28;20084;-59
2021/04/18 00:07:40;;;;;;;8.95;4.43;;;;;;;;;;5116335;28;20028;-59
2021/04/18 00:10:07;;;;;;;7.00;4.07;;;;;;;;;;5116190;28;20076;-59
2021/04/18 00:12:34;;;;;;;10.77;4.15;;;;;;;;;;5116049;28;20050;-58
2021/04/18 00:15:01;;;;;;;7.18;3.70;;;;;;;;;;5116104;28;20079;-57
2021/04/18 00:17:27;;;;;;;9.13;3.47;;;;;;;;;;5116051;28;20027;-57
2021/04/18 00:19:54;;;;;;;6.33;3.10;;;;;;;;;;5116116;28;20165;-56
2021/04/18 00:22:21;;;;;;;8.00;3.28;;;;;;;;;;5116012;28;20084;-57
2021/04/18 00:24:48;;;;;;;7.53;3.73;;;;;;;;;;5115905;28;20073;-57
2021/04/18 00:27:15;;;;;;;10.30;3.50;;;;;;;;;;5115884;28;20073;-56
2021/04/18 00:29:41;;;;;;;7.20;3.47;;;;;;;;;;5115482;28;20027;-56
2021/04/18 00:32:09;;;;;;;6.50;4.00;;;;;;;;;;5115765;28;20348;-56
2021/04/18 00:34:35;;;;;;;10.97;3.97;;;;;;;;;;5116376;28;20427;-57
2021/04/18 00:37:08;;;;;;;8.07;3.73;;;;;;;;;;5115667;28;20047;-57
2021/04/18 00:39:35;;;;;;;8.10;3.90;;;;;;;;;;5115527;28;20095;-56
2021/04/18 00:42:02;;;;;;;9.03;3.60;;;;;;;;;;5115579;28;20069;-56
2021/04/18 00:44:29;;;;;;;14.50;3.70;;;;;;;;;;5115622;28;20023;-56
2021/04/18 00:46:56;;;;;;;12.50;4.17;;;;;;;;;;5115463;28;20020;-56
2021/04/18 00:49:23;;;;;;;7.33;3.57;;;;;;;;;;5115393;28;20047;-56
2021/04/18 00:51:49;;;;;;;10.33;3.57;;;;;;;;;;5115734;28;20072;-56
2021/04/18 00:54:16;;;;;;;6.33;4.07;;;;;;;;;;5115268;28;20036;-56
2021/04/18 00:56:43;;;;;;;9.43;3.70;;;;;;;;;;5115356;28;20035;-57
2021/04/18 00:59:10;;;;;;;7.33;3.50;;;;;;;;;;5115202;28;20378;-56
2021/04/18 01:01:37;;;;;;;6.57;3.90;;;;;;;;;;5113372;28;20047;-57
2021/04/18 01:04:05;;;;;;;8.00;3.60;;;;;;;;;;5115159;28;20024;-56
2021/04/18 01:06:32;;;;;;;8.90;3.53;;;;;;;;;;5115104;28;20367;-57
2021/04/18 01:08:59;;;;;;;7.57;3.37;;;;;;;;;;5115097;28;20034;-57
2021/04/18 01:11:26;;;;;;;10.53;3.90;;;;;;;;;;5115019;28;20024;-57
2021/04/18 01:13:53;;;;;;;8.67;3.60;;;;;;;;;;5114883;28;20123;-57
2021/04/18 01:16:20;;;;;;;11.03;3.70;;;;;;;;;;5114943;28;20019;-56
2021/04/18 01:18:46;;;;;;;6.03;3.53;;;;;;;;;;5114908;28;20028;-56
2021/04/18 01:21:13;;;;;;;6.73;3.73;;;;;;;;;;5114761;28;20533;-57
2021/04/18 01:23:41;;;;;;;6.63;3.70;;;;;;;;;;5114795;28;20019;-57
2021/04/18 01:26:08;;;;;;;11.00;4.07;;;;;;;;;;5114837;28;20027;-57
2021/04/18 01:28:35;;;;;;;10.50;3.53;;;;;;;;;;5114786;28;20102;-57
2021/04/18 01:31:03;;;;;;;11.17;4.50;;;;;;;;;;5114915;28;20032;-56
2021/04/18 01:33:30;;;;;;;7.67;3.10;;;;;;;;;;5114470;28;20036;-57
2021/04/18 01:35:57;;;;;;;7.27;2.73;;;;;;;;;;5114598;28;20406;-56
2021/04/18 01:38:24;;;;;;;17.47;3.83;;;;;;;;;;5114473;28;20031;-57
2021/04/18 01:40:51;;;;;;;8.10;3.67;;;;;;;;;;5113685;28;20364;-56
2021/04/18 01:43:19;;;;;;;7.80;3.03;;;;;;;;;;5114359;28;20020;-56
2021/04/18 01:45:47;;;;;;;7.23;3.53;;;;;;;;;;5114390;28;20101;-56
2021/04/18 01:48:14;;;;;;;8.73;4.00;;;;;;;;;;5114686;28;20024;-56
2021/04/18 01:50:42;;;;;;;13.07;3.73;;;;;;;;;;5114183;28;20020;-56
2021/04/18 01:53:09;;;;;;;9.10;3.63;;;;;;;;;;5113981;28;20028;-56
2021/04/18 01:55:37;;;;;;;6.73;2.90;;;;;;;;;;5114164;28;20016;-56
2021/04/18 01:58:04;;;;;;;8.40;3.67;;;;;;;;;;5114081;28;20032;-56
2021/04/18 02:00:31;;;;;;;8.00;3.60;;;;;;;;;;5113588;28;20273;-56
2021/04/18 02:02:58;;;;;;;7.40;3.47;;;;;;;;;;5114003;28;20026;-56
2021/04/18 02:05:25;;;;;;;7.43;4.20;;;;;;;;;;5113978;28;20032;-56
2021/04/18 02:07:52;;;;;;;12.10;3.40;;;;;;;;;;5114050;28;20027;-56
2021/04/18 02:10:19;;;;;;;10.50;4.37;;;;;;;;;;5113844;28;20027;-56
2021/04/18 02:12:46;;;;;;;8.57;4.00;;;;;;;;;;5113844;28;20023;-57
2021/04/18 02:15:13;;;;;;;9.20;4.27;;;;;;;;;;5113793;28;20071;-57
2021/04/18 02:17:41;;;;;;;8.10;3.30;;;;;;;;;;5113757;28;20035;-56
2021/04/18 02:20:08;;;;;;;6.53;3.30;;;;;;;;;;5113646;28;20039;-56
2021/04/18 02:22:35;;;;;;;7.80;3.77;;;;;;;;;;5095417;28;20493;-57
2021/04/18 02:25:07;;;;;;;10.37;3.37;;;;;;;;;;5113721;28;20062;-57
2021/04/18 02:27:34;;;;;;;11.00;3.93;;;;;;;;;;5112948;28;20135;-56
2021/04/18 02:30:00;;;;;;;10.40;3.80;;;;;;;;;;5113570;28;20028;-56
2021/04/18 02:32:27;;;;;;;9.13;3.50;;;;;;;;;;5113342;28;20032;-56
2021/04/18 02:34:54;;;;;;;9.50;3.73;;;;;;;;;;5113652;28;20039;-56
2021/04/18 02:37:21;;;;;;;12.03;3.87;;;;;;;;;;5113511;28;20394;-56
2021/04/18 02:39:47;;;;;;;7.23;3.30;;;;;;;;;;5113455;28;20084;-57
2021/04/18 02:42:14;;;;;;;8.47;4.37;;;;;;;;;;5113374;28;20038;-57
2021/04/18 02:44:41;;;;;;;6.40;3.23;;;;;;;;;;5113405;28;20382;-57
2021/04/18 02:47:08;;;;;;;14.77;3.67;;;;;;;;;;5113449;28;20076;-56
2021/04/18 02:49:35;;;;;;;7.03;2.90;;;;;;;;;;5113345;28;20026;-56
2021/04/18 02:52:01;;;;;;;9.57;3.63;;;;;;;;;;5113130;28;20554;-56
2021/04/18 02:54:28;;;;;;;10.70;3.83;;;;;;;;;;5113035;28;20444;-56
2021/04/18 02:56:55;;;;;;;10.30;3.90;;;;;;;;;;5094922;28;20493;-56
2021/04/18 02:59:22;;;;;;;10.53;3.40;;;;;;;;;;5113106;28;20390;-56
2021/04/18 03:01:48;;;;;;;11.43;3.37;;;;;;;;;;5112830;28;20082;-56
2021/04/18 03:04:15;;;;;;;9.23;3.33;;;;;;;;;;5113236;28;20487;-56
2021/04/18 03:06:42;;;;;;;11.03;3.60;;;;;;;;;;5113207;28;20028;-56
2021/04/18 03:09:09;;;;;;;8.53;3.27;;;;;;;;;;5113082;28;20024;-56
2021/04/18 03:11:36;;;;;;;9.87;3.43;;;;;;;;;;5113182;28;20397;-56
2021/04/18 03:14:03;;;;;;;7.90;3.10;;;;;;;;;;5113108;28;20039;-56
2021/04/18 03:16:30;;;;;;;6.60;2.80;;;;;;;;;;5113058;28;20470;-56
2021/04/18 03:18:57;;;;;;;13.50;3.53;;;;;;;;;;5112984;28;20023;-56
2021/04/18 03:21:24;;;;;;;10.73;3.70;;;;;;;;;;5113093;28;20059;-56
2021/04/18 03:23:50;;;;;;;16.27;4.03;;;;;;;;;;5113051;28;20024;-56
2021/04/18 03:26:23;;;;;;;8.77;3.10;;;;;;;;;;5112893;28;20027;-56
2021/04/18 03:28:57;;;;;;;8.77;3.60;;;;;;;;;;5112944;28;20083;-56
2021/04/18 03:31:24;;;;;;;8.53;3.07;;;;;;;;;;5112906;28;20032;-56
2021/04/18 03:33:51;;;;;;;9.00;3.10;;;;;;;;;;5112893;28;20047;-56
2021/04/18 03:36:18;;;;;;;8.13;3.33;;;;;;;;;;5112926;28;20420;-56
2021/04/18 03:38:44;;;;;;;10.87;3.37;;;;;;;;;;5112896;28;20055;-56
2021/04/18 03:41:11;;;;;;;11.23;3.60;;;;;;;;;;5112835;28;20028;-56
2021/04/18 03:43:38;;;;;;;6.93;3.27;;;;;;;;;;5112729;28;20051;-56
2021/04/18 03:46:05;;;;;;;9.30;3.03;;;;;;;;;;5113191;28;20022;-56
2021/04/18 03:48:31;;;;;;;10.60;3.33;;;;;;;;;;5112838;28;20077;-56
2021/04/18 03:50:58;;;;;;;10.10;3.30;;;;;;;;;;5112652;28;20020;-56
2021/04/18 03:53:25;;;;;;;8.93;2.93;;;;;;;;;;5112567;28;20028;-56
2021/04/18 03:55:52;;;;;;;9.47;3.13;;;;;;;;;;5112808;28;20085;-56
2021/04/18 03:58:19;;;;;;;5.83;2.73;;;;;;;;;;5112987;28;20034;-56
2021/04/18 04:00:58;;;;;;;10.93;4.33;;;;;;;;;;5111851;28;20047;-56
2021/04/18 04:03:25;;;;;;;5.70;2.83;;;;;;;;;;5113631;28;20027;-56
2021/04/18 04:05:52;;;;;;;10.77;3.40;;;;;;;;;;5116298;28;20087;-56
2021/04/18 04:08:18;;;;;;;10.03;3.20;;;;;;;;;;5116369;28;20024;-56
2021/04/18 04:10:45;;;;;;;7.07;3.43;;;;;;;;;;5116170;28;20165;-56
2021/04/18 04:13:12;;;;;;;6.27;2.67;;;;;;;;;;5116079;28;20031;-56
2021/04/18 04:15:39;;;;;;;5.63;2.90;;;;;;;;;;5116210;28;20068;-56
2021/04/18 04:18:05;;;;;;;7.63;3.03;;;;;;;;;;5116005;28;20027;-56
2021/04/18 04:20:32;;;;;;;7.00;3.00;;;;;;;;;;5115979;28;20035;-56
2021/04/18 04:22:59;;;;;;;7.00;3.00;;;;;;;;;;5116072;28;20073;-56
2021/04/18 04:25:33;;;;;;;6.30;3.03;;;;;;;;;;5115867;28;20034;-56
2021/04/18 04:28:11;;;;;;;8.43;2.97;;;;;;;;;;5115757;28;20023;-55
2021/04/18 04:30:41;;;;;;;8.50;3.57;;;;;;;;;;5115908;28;20382;-56
2021/04/18 04:33:12;;;;;;;7.07;2.93;;;;;;;;;;5115734;28;20032;-56
2021/04/18 04:35:49;;;;;;;4.07;2.43;;;;;;;;;;5114565;28;20107;-56
2021/04/18 04:38:16;;;;;;;6.60;2.67;;;;;;;;;;5115614;28;20027;-56
2021/04/18 04:40:50;;;;;;;7.77;2.33;;;;;;;;;;5115551;28;20103;-56
2021/04/18 04:43:22;;;;;;;5.95;3.08;;;;;;;;;;5114077;28;20054;-56
2021/04/18 04:45:58;;;;;;;5.37;2.67;;;;;;;;;;5112928;28;20479;-56
2021/04/18 04:48:29;;;;;;;7.50;2.90;;;;;;;;;;5115586;28;20024;-56
2021/04/18 04:50:59;;;;;;;9.23;2.87;;;;;;;;;;5115016;28;20047;-56
2021/04/18 04:53:33;;;;;;;6.13;2.50;;;;;;;;;;5115134;28;20399;-56
2021/04/18 04:56:03;;;;;;;10.17;3.60;;;;;;;;;;5115042;28;20042;-56
2021/04/18 04:58:33;;;;;;;10.33;4.90;;;;;;;;;;5115422;28;20019;-56
2021/04/18 05:01:00;;;;;;;7.70;3.33;;;;;;;;;;5114642;27;20047;-56
2021/04/18 05:03:27;;;;;;;9.90;3.43;;;;;;;;;;5115266;28;20382;-56
2021/04/18 05:05:56;;;;;;;6.47;3.33;;;;;;;;;;5115165;28;20031;-56
2021/04/18 05:08:23;;;;;;;10.13;3.43;;;;;;;;;;5097012;28;20156;-56
2021/04/18 05:10:50;;;;;;;8.83;3.50;;;;;;;;;;5114990;28;20072;-56
2021/04/18 05:13:17;;;;;;;8.03;3.70;;;;;;;;;;5114951;28;20106;-56
2021/04/18 05:15:43;;;;;;;10.20;3.50;;;;;;;;;;5113816;28;20116;-56
2021/04/18 05:18:10;;;;;;;22.67;4.27;;;;;;;;;;5115040;28;20022;-56
2021/04/18 05:20:38;;;;;;;8.23;3.80;;;;;;;;;;5114868;28;20058;-56
2021/04/18 05:23:04;;;;;;;11.57;3.93;;;;;;;;;;5114943;28;20031;-56
2021/04/18 05:25:31;;;;;;;6.53;3.60;;;;;;;;;;5114784;28;20383;-56
2021/04/18 05:27:58;;;;;;;5.03;2.73;;;;;;;;;;5114735;28;20383;-56
2021/04/18 05:30:25;;;;;;;6.63;2.93;;;;;;;;;;5114732;28;20019;-56
2021/04/18 05:32:52;;;;;;;11.97;3.20;;;;;;;;;;5114672;28;20031;-56
2021/04/18 05:35:19;;;;;;;7.00;3.40;;;;;;;;;;5114651;28;20035;-56
2021/04/18 05:37:46;;;;;;;11.60;3.60;;;;;;;;;;5114584;28;20371;-56
2021/04/18 05:40:13;;;;;;;7.37;3.63;;;;;;;;;;5114446;28;20417;-56
2021/04/18 05:42:39;;;;;;;10.93;4.13;;;;;;;;;;5114362;28;20352;-56
2021/04/18 05:45:06;;;;;;;7.87;3.73;;;;;;;;;;5114378;28;20063;-56
2021/04/18 05:47:33;;;;;;;7.47;3.70;;;;;;;;;;5114283;28;20470;-57
2021/04/18 05:50:00;;;;;;;7.73;3.93;;;;;;;;;;5114354;28;20024;-57
2021/04/18 05:52:31;;;;;;;15.57;4.77;;;;;;;;;;5114165;28;20387;-55
2021/04/18 05:54:58;;;;;;;6.63;3.23;;;;;;;;;;5114181;28;20387;-56
2021/04/18 05:57:25;;;;;;;9.40;3.60;;;;;;;;;;5114046;28;20492;-56
2021/04/18 05:59:51;;;;;;;8.03;3.33;;;;;;;;;;5113741;28;20035;-55
2021/04/18 06:02:18;;;;;;;12.30;3.67;;;;;;;;;;5113435;28;20054;-56
2021/04/18 06:04:45;;;;;;;9.13;3.73;;;;;;;;;;5113874;28;20113;-56
2021/04/18 06:07:12;;;;;;;11.10;4.50;;;;;;;;;;5113915;28;20024;-56
2021/04/18 06:09:39;;;;;;;8.53;4.53;;;;;;;;;;5113867;28;20035;-56
2021/04/18 06:12:06;;;;;;;7.77;3.83;;;;;;;;;;5113957;28;20020;-55
2021/04/18 06:14:33;;;;;;;9.67;3.80;;;;;;;;;;5113800;28;20035;-56
2021/04/18 06:17:00;;;;;;;8.37;3.67;;;;;;;;;;5113758;28;20020;-56
2021/04/18 06:19:27;;;;;;;9.57;3.37;;;;;;;;;;5113683;28;20031;-56
2021/04/18 06:21:53;;;;;;;8.33;3.63;;;;;;;;;;5113727;28;20055;-56
2021/04/18 06:24:20;;;;;;;5.33;3.57;;;;;;;;;;5114022;28;20035;-56
2021/04/18 06:26:47;;;;;;;7.37;3.97;;;;;;;;;;5113412;28;20019;-56
2021/04/18 06:29:14;;;;;;;6.93;3.40;;;;;;;;;;5113538;28;20024;-55
2021/04/18 06:31:40;;;;;;;9.40;3.50;;;;;;;;;;5113631;28;20023;-56
2021/04/18 06:34:07;;;;;;;7.37;3.47;;;;;;;;;;5113429;28;20189;-56
2021/04/18 06:36:34;;;;;;;10.23;3.90;;;;;;;;;;5113519;28;20023;-56
2021/04/18 06:39:01;;;;;;;8.53;4.10;;;;;;;;;;5113489;28;20028;-56
2021/04/18 06:41:30;;;;;;;8.60;3.60;;;;;;;;;;5113461;28;20016;-56
2021/04/18 06:43:56;;;;;;;7.50;3.30;;;;;;;;;;5113496;28;20031;-56
2021/04/18 06:46:23;;;;;;;14.03;3.37;;;;;;;;;;5113430;28;20026;-56
2021/04/18 06:48:50;;;;;;;6.73;3.67;;;;;;;;;;5113328;28;20019;-56
2021/04/18 06:51:17;;;;;;;11.20;4.20;;;;;;;;;;5113445;28;20028;-56
2021/04/18 06:53:44;;;;;;;6.53;3.37;;;;;;;;;;5113146;28;20485;-55
2021/04/18 06:56:11;;;;;;;8.37;3.40;;;;;;;;;;5113331;28;20024;-56
2021/04/18 06:58:38;;;;;;;8.13;3.37;;;;;;;;;;5113238;28;20436;-56
2021/04/18 07:01:05;;;;;;;6.33;3.30;;;;;;;;;;5112872;28;20035;-55
2021/04/18 07:03:31;;;;;;;7.37;3.17;;;;;;;;;;5113403;28;20020;-56
2021/04/18 07:05:59;;;;;;;7.97;3.70;;;;;;;;;;5113216;28;20438;-56
2021/04/18 07:08:26;;;;;;;8.83;3.20;;;;;;;;;;5113211;28;20024;-56
2021/04/18 07:11:09;;;;;;;9.43;3.03;;;;;;;;;;5113182;28;20020;-56
2021/04/18 07:13:37;;;;;;;5.40;3.47;;;;;;;;;;5113180;28;20064;-56
2021/04/18 07:16:04;;;;;;;6.53;3.30;;;;;;;;;;5113145;28;20023;-56
2021/04/18 07:18:38;;;;;;;10.63;3.13;;;;;;;;;;5113095;28;20032;-56
2021/04/18 07:21:05;;;;;;;10.13;3.80;;;;;;;;;;5113324;28;20028;-55
2021/04/18 07:23:34;;;;;;;9.37;4.57;;;;;;;;;;5112977;28;20430;-56
2021/04/18 07:26:21;;;;;;;8.27;4.53;;;;;;;;;;5113098;28;20031;-56
2021/04/18 07:28:47;;;;;;;6.33;3.37;;;;;;;;;;5112858;28;20059;-56
2021/04/18 07:31:28;;;;;;;8.57;3.90;;;;;;;;;;5112938;28;20386;-55
2021/04/18 07:34:06;;;;;;;9.90;3.70;;;;;;;;;;5112949;28;20497;-55
2021/04/18 07:36:33;;;;;;;8.03;2.80;;;;;;;;;;5112907;28;20027;-56
2021/04/18 07:39:00;;;;;;;6.90;3.73;;;;;;;;;;5115037;28;20030;-56
2021/04/18 07:41:27;;;;;;;9.57;3.87;;;;;;;;;;5116817;28;20022;-56
2021/04/18 07:43:54;;;;;;;6.37;3.60;;;;;;;;;;5116886;28;20047;-56
2021/04/18 07:46:22;;;;;;;6.67;3.70;;;;;;;;;;5116876;28;20024;-55
2021/04/18 07:48:49;;;;;;;7.13;3.93;;;;;;;;;;5116639;28;20027;-56
2021/04/18 07:51:18;;;;;;;8.53;4.03;;;;;;;;;;5116612;28;20497;-56
2021/04/18 07:53:45;;;;;;;8.70;3.67;;;;;;;;;;5116461;28;20386;-56
2021/04/18 07:56:13;;;;;;;11.13;3.70;;;;;;;;;;5116636;28;20076;-56
2021/04/18 07:58:43;;;;;;;12.70;4.10;;;;;;;;;;5116477;28;20356;-56
2021/04/18 08:01:10;;;;;;;7.70;4.00;;;;;;;;;;5116160;27;20431;-55
2021/04/18 08:03:37;;;;;;;9.53;3.63;;;;;;;;;;5116490;28;20031;-56
2021/04/18 08:06:05;;;;;;;7.60;3.53;;;;;;;;;;5116471;28;20486;-56
2021/04/18 08:08:45;;;;;;;7.00;3.43;;;;;;;;;;5116356;28;20027;-56
2021/04/18 08:11:12;;;;;;;5.77;3.30;;;;;;;;;;5116309;28;20223;-56
2021/04/18 08:13:43;;;;;;;7.83;3.73;;;;;;;;;;5116208;28;20394;-56
2021/04/18 08:16:11;;;;;;;8.00;4.10;;;;;;;;;;5116213;28;20093;-56
2021/04/18 08:18:40;;;;;;;11.70;3.80;;;;;;;;;;5116176;28;20027;-56
2021/04/18 08:21:25;;;;;;;7.80;3.90;;;;;;;;;;5116027;28;20485;-56
2021/04/18 08:23:52;;;;;;;6.88;3.70;;;;;;;;;;5116103;28;20030;-55
2021/04/18 08:26:20;;;;;;;6.87;3.90;;;;;;;;;;5115912;28;20073;-55
2021/04/18 08:29:01;;;;;;;6.97;4.57;;;;;;;;;;5116131;28;20028;-56
2021/04/18 08:31:28;;;;;;;7.17;3.97;;;;;;;;;;5115858;28;20393;-56
2021/04/18 08:33:56;;;;;;;6.70;4.13;;;;;;;;;;5115668;28;20554;-56
2021/04/18 08:36:26;;;;;;;7.97;4.67;;;;;;;;;;5115745;28;20044;-55
2021/04/18 08:39:02;;;;;;;8.60;4.37;;;;;;;;;;5115797;28;20024;-56
2021/04/18 08:41:39;;;;;;;7.67;3.87;;;;;;;;;;5115648;28;20027;-56
2021/04/18 08:44:26;;;;;;;6.97;3.73;;;;;;;;;;5115749;28;20015;-55
2021/04/18 08:47:00;;;;;;;7.27;4.10;;;;;;;;;;5115643;28;20028;-55
2021/04/18 08:49:40;;;;;;;7.73;4.90;;;;;;;;;;5115077;28;20471;-55
2021/04/18 08:52:09;;;;;;;7.90;4.23;;;;;;;;;;5115373;28;20119;-56
2021/04/18 08:54:37;;;;;;;7.53;4.47;;;;;;;;;;5115234;28;20035;-55
2021/04/18 08:57:06;;;;;;;7.30;4.33;;;;;;;;;;5115311;28;20450;-55
2021/04/18 08:59:33;;;;;;;7.77;3.83;;;;;;;;;;5115286;28;20081;-56
2021/04/18 09:02:08;;;;;;;5.77;3.53;;;;;;;;;;5114636;28;20134;-56
2021/04/18 09:04:38;;;;;;;6.72;3.80;;;;;;;;;;5115021;28;20059;-55
2021/04/18 09:07:06;;;;;;;8.93;4.10;;;;;;;;;;5115130;28;20028;-55
2021/04/18 09:09:34;;;;;;;6.67;3.97;;;;;;;;;;5115115;28;20024;-55
2021/04/18 09:12:00;;;;;;;7.80;4.10;;;;;;;;;;5115176;28;20019;-56
2021/04/18 09:14:28;;;;;;;6.03;3.93;;;;;;;;;;5115079;28;20032;-55
2021/04/18 09:17:15;;;;;;;11.07;3.90;;;;;;;;;;5115096;28;20047;-56
2021/04/18 09:19:52;;;;;;;9.53;4.60;;;;;;;;;;5114824;28;20023;-55
2021/04/18 09:22:19;;;;;;;8.77;3.97;;;;;;;;;;5114966;28;20024;-56
2021/04/18 09:24:46;;;;;;;8.33;4.30;;;;;;;;;;5114859;28;20019;-55
2021/04/18 09:27:21;;;;;;;8.23;3.80;;;;;;;;;;5114747;28;20408;-55
2021/04/18 09:29:52;;;;;;;6.63;4.30;;;;;;;;;;5114700;28;20027;-55
2021/04/18 09:32:26;;;;;;;11.07;4.87;;;;;;;;;;5114582;28;20020;-55
2021/04/18 09:34:53;;;;;;;9.27;4.40;;;;;;;;;;5114688;28;20031;-55
2021/04/18 09:37:29;;;;;;;7.60;4.40;;;;;;;;;;5114840;28;20031;-55
2021/04/18 09:39:59;;;;;;;6.63;4.00;;;;;;;;;;5114595;28;20023;-55
2021/04/18 09:42:31;;;;;;;7.13;3.87;;;;;;;;;;5114468;28;20027;-55
2021/04/18 09:45:08;;;;;;;7.57;4.57;;;;;;;;;;5114518;28;20392;-55
2021/04/18 09:47:36;;;;;;;11.47;5.00;;;;;;;;;;5114518;28;20099;-55
2021/04/18 09:50:05;;;;;;;8.57;4.17;;;;;;;;;;5114337;28;20027;-56
2021/04/18 09:52:37;;;;;;;13.77;5.20;;;;;;;;;;5114215;28;20016;-55
2021/04/18 09:55:09;;;;;;;11.10;4.30;;;;;;;;;;5114131;28;20394;-55
2021/04/18 09:57:50;;;;;;;6.90;4.73;;;;;;;;;;5114181;28;20363;-55
2021/04/18 10:00:34;;;;;;;8.87;4.10;;;;;;;;;;5114027;28;20023;-56
2021/04/18 10:03:17;;;;;;;8.45;3.95;;;;;;;;;;5111548;28;20135;-55
2021/04/18 10:05:44;;;;;;;8.73;4.27;;;;;;;;;;5113880;28;20066;-55
2021/04/18 10:08:29;;;;;;;8.00;4.27;;;;;;;;;;5113961;28;20026;-56
2021/04/18 10:10:58;;;;;;;8.80;4.93;;;;;;;;;;5114070;28;20020;-55
2021/04/18 10:13:45;;;;;;;10.47;5.00;;;;;;;;;;5113848;28;20126;-55
2021/04/18 10:16:13;;;;;;;7.77;4.60;;;;;;;;;;5113906;28;20020;-55
2021/04/18 10:18:41;;;;;;;9.83;4.73;;;;;;;;;;5114130;28;20407;-55
2021/04/18 10:21:15;;;;;;;7.40;4.27;;;;;;;;;;5113810;28;20073;-55
2021/04/18 10:23:42;;;;;;;8.30;4.53;;;;;;;;;;5113808;28;20443;-55
2021/04/18 10:26:09;;;;;;;13.53;4.50;;;;;;;;;;5113718;28;20031;-55
2021/04/18 10:28:36;;;;;;;6.67;3.90;;;;;;;;;;5113732;28;20031;-55
2021/04/18 10:31:02;;;;;;;7.80;4.50;;;;;;;;;;5113724;28;20050;-55
2021/04/18 10:33:29;;;;;;;10.07;4.37;;;;;;;;;;5113475;28;20504;-55
2021/04/18 10:35:57;;;;;;;14.27;5.07;;;;;;;;;;5113615;28;20076;-55
2021/04/18 10:38:23;;;;;;;8.17;4.63;;;;;;;;;;5113523;28;20034;-55
2021/04/18 10:40:51;;;;;;;5.70;3.50;;;;;;;;;;5113565;28;20035;-55
2021/04/18 10:43:17;;;;;;;9.17;4.30;;;;;;;;;;5113439;28;20534;-55
2021/04/18 10:45:44;;;;;;;10.07;4.57;;;;;;;;;;5113372;28;20150;-55
2021/04/18 10:48:11;;;;;;;6.90;3.87;;;;;;;;;;5113404;28;20507;-55
2021/04/18 10:50:38;;;;;;;7.57;4.33;;;;;;;;;;5113403;28;20023;-56
2021/04/18 10:53:05;;;;;;;8.87;4.37;;;;;;;;;;5113270;28;20085;-55
2021/04/18 10:55:32;;;;;;;7.43;3.70;;;;;;;;;;5113323;28;20028;-55
2021/04/18 10:57:59;;;;;;;7.47;4.30;;;;;;;;;;5113238;28;20028;-55
2021/04/18 11:00:27;;;;;;;13.60;4.90;;;;;;;;;;5113255;28;20020;-56
2021/04/18 11:02:54;;;;;;;7.57;4.03;;;;;;;;;;5112766;28;20053;-55
2021/04/18 11:05:21;;;;;;;6.70;3.50;;;;;;;;;;5113375;28;20277;-55
2021/04/18 11:07:48;;;;;;;8.33;4.57;;;;;;;;;;5113249;28;20038;-55
2021/04/18 11:10:16;;;;;;;7.87;4.57;;;;;;;;;;5113157;28;20024;-55
2021/04/18 11:12:42;;;;;;;9.67;4.10;;;;;;;;;;5114703;28;20016;-55
2021/04/18 11:15:10;;;;;;;7.43;4.33;;;;;;;;;;5117401;28;20378;-55
2021/04/18 11:17:38;;;;;;;7.80;4.63;;;;;;;;;;5117318;28;20094;-55
2021/04/18 11:20:06;;;;;;;12.03;4.60;;;;;;;;;;5117279;28;20470;-55
2021/04/18 11:22:33;;;;;;;8.13;4.30;;;;;;;;;;5117217;28;20080;-55
2021/04/18 11:25:00;;;;;;;7.73;5.07;;;;;;;;;;5117308;28;20024;-55
2021/04/18 11:27:30;;;;;;;13.00;6.13;;;;;;;;;;5117108;28;20020;-55
2021/04/18 11:29:56;;;;;;;10.60;5.33;;;;;;;;;;5117030;28;20023;-55
2021/04/18 11:32:23;;;;;;;8.90;4.70;;;;;;;;;;5116995;28;20027;-55
2021/04/18 11:34:50;;;;;;;8.97;4.97;;;;;;;;;;5117013;28;20059;-55
2021/04/18 11:37:17;;;;;;;13.50;5.67;;;;;;;;;;5117020;28;20061;-55
2021/04/18 11:39:44;;;;;;;9.70;4.97;;;;;;;;;;5116783;28;20259;-55
2021/04/18 11:42:11;;;;;;;7.13;3.93;;;;;;;;;;5116818;28;20024;-55
2021/04/18 11:44:38;;;;;;;9.20;4.80;;;;;;;;;;5116718;28;20038;-55
2021/04/18 11:47:04;;;;;;;7.20;4.60;;;;;;;;;;5116756;28;20255;-55
2021/04/18 11:49:31;;;;;;;11.83;4.60;;;;;;;;;;5116555;28;20058;-55
2021/04/18 11:51:58;;;;;;;12.47;4.90;;;;;;;;;;5116626;28;20035;-55
2021/04/18 11:54:25;;;;;;;11.37;5.10;;;;;;;;;;5116406;28;20049;-55
2021/04/18 11:56:51;;;;;;;11.47;5.73;;;;;;;;;;5116615;28;20023;-55
2021/04/18 11:59:18;;;;;;;11.63;5.17;;;;;;;;;;5116455;28;20436;-55
2021/04/18 12:01:52;;;;;;;8.57;4.37;;;;;;;;;;5115707;27;20406;-56
2021/04/18 12:04:18;;;;;;;8.50;4.13;;;;;;;;;;5116775;28;20027;-55
2021/04/18 12:06:45;;;;;;;18.30;8.23;;;;;;;;;;5116369;28;20252;-55
2021/04/18 12:09:12;;;;;;;12.53;5.77;;;;;;;;;;5116261;28;20084;-55
2021/04/18 12:11:39;;;;;;;12.90;5.20;;;;;;;;;;5116238;28;20035;-55
2021/04/18 12:14:05;;;;;;;7.17;4.57;;;;;;;;;;5116150;28;20386;-55
2021/04/18 12:16:32;;;;;;;10.50;5.07;;;;;;;;;;5116250;28;20019;-55
2021/04/18 12:18:59;;;;;;;11.80;4.70;;;;;;;;;;5116106;28;20114;-55
2021/04/18 12:21:26;;;;;;;12.77;5.00;;;;;;;;;;5116138;28;20026;-55
2021/04/18 12:23:53;;;;;;;17.60;5.90;;;;;;;;;;5115511;28;20102;-55
2021/04/18 12:26:19;;;;;;;11.53;4.53;;;;;;;;;;5116025;28;20016;-55
2021/04/18 12:28:46;;;;;;;10.30;4.60;;;;;;;;;;5115940;28;20023;-55
2021/04/18 12:31:13;;;;;;;8.27;4.53;;;;;;;;;;5115971;28;20438;-55
2021/04/18 12:33:40;;;;;;;14.17;4.67;;;;;;;;;;5115912;28;20036;-55
2021/04/18 12:36:07;;;;;;;8.03;4.63;;;;;;;;;;5115929;28;20051;-55
2021/04/18 12:38:33;;;;;;;6.23;4.10;;;;;;;;;;5115819;28;20055;-55
2021/04/18 12:41:00;;;;;;;10.17;4.43;;;;;;;;;;5115759;28;20256;-55
2021/04/18 12:43:27;;;;;;;9.00;4.17;;;;;;;;;;5116337;28;20020;-55
2021/04/18 12:45:54;;;;;;;13.23;5.03;;;;;;;;;;5115756;28;20019;-55
2021/04/18 12:48:21;;;;;;;6.70;4.80;;;;;;;;;;5115587;28;20034;-56
2021/04/18 12:50:47;;;;;;;12.80;6.50;;;;;;;;;;5115526;28;20028;-56
2021/04/18 12:53:14;;;;;;;17.23;6.03;;;;;;;;;;5115373;28;20031;-56
2021/04/18 12:55:41;;;;;;;14.00;6.90;;;;;;;;;;5115531;28;20026;-55
2021/04/18 12:58:08;;;;;;;14.00;6.13;;;;;;;;;;5115379;28;20027;-55
2021/04/18 13:00:34;;;;;;;17.33;8.87;;;;;;;;;;5115341;28;20028;-56
2021/04/18 13:03:07;;;;;;;14.47;7.80;;;;;;;;;;5114634;27;20101;-56
2021/04/18 13:05:34;;;;;;;20.93;9.07;;;;;;;;;;5115301;28;20063;-55
2021/04/18 13:08:01;;;;;;;14.97;7.80;;;;;;;;;;5115120;28;20024;-55
2021/04/18 13:10:28;;;;;;;16.37;7.70;;;;;;;;;;5115179;28;20077;-55
2021/04/18 13:12:55;;;;;;;15.43;9.03;;;;;;;;;;5115049;28;20024;-55
2021/04/18 13:15:22;;;;;;;18.70;8.00;;;;;;;;;;5115068;28;20020;-56
2021/04/18 13:17:50;;;;;;;16.77;7.53;;;;;;;;;;5115008;28;20027;-55
2021/04/18 13:20:17;;;;;;;14.37;7.57;;;;;;;;;;5114970;28;20023;-55
2021/04/18 13:22:44;;;;;;;10.37;6.77;;;;;;;;;;5114921;28;20104;-55
2021/04/18 13:25:11;;;;;;;12.93;6.27;;;;;;;;;;5115196;28;20398;-56
2021/04/18 13:27:38;;;;;;;14.93;5.60;;;;;;;;;;5114865;28;20024;-56
2021/04/18 13:30:07;;;;;;;19.27;5.53;;;;;;;;;;5114730;28;20030;-56
2021/04/18 13:32:34;;;;;;;13.20;5.67;;;;;;;;;;5114594;28;20032;-56
2021/04/18 13:35:01;;;;;;;12.93;4.97;;;;;;;;;;5114753;28;20023;-56
2021/04/18 13:37:28;;;;;;;18.50;5.10;;;;;;;;;;5113686;28;20353;-56
2021/04/18 13:39:55;;;;;;;10.93;4.87;;;;;;;;;;5114568;28;20046;-56
2021/04/18 13:42:22;;;;;;;15.40;5.23;;;;;;;;;;5114455;28;20035;-56
2021/04/18 13:44:53;;;;;;;12.77;5.00;;;;;;;;;;5114524;28;20073;-56
2021/04/18 13:47:19;;;;;;;22.13;9.07;;;;;;;;;;5114402;28;20049;-56
2021/04/18 13:49:46;;;;;;;16.17;7.63;;;;;;;;;;5114296;28;20019;-56
2021/04/18 13:52:13;;;;;;;15.30;7.50;;;;;;;;;;5114310;28;20028;-56
2021/04/18 13:54:40;;;;;;;18.50;8.33;;;;;;;;;;5114066;28;20031;-56
2021/04/18 13:57:06;;;;;;;16.03;7.37;;;;;;;;;;5114182;28;20024;-56
2021/04/18 13:59:33;;;;;;;19.97;7.67;;;;;;;;;;5114062;28;20035;-56
2021/04/18 14:02:00;;;;;;;25.00;9.83;;;;;;;;;;5113711;27;20471;-56
2021/04/18 14:04:27;;;;;;;20.17;7.87;;;;;;;;;;5114018;28;20040;-56
2021/04/18 14:07:00;;;;;;;21.30;9.63;;;;;;;;;;5113988;28;20105;-56
2021/04/18 14:09:33;;;;;;;16.90;7.70;;;;;;;;;;5113834;28;20363;-58
2021/04/18 14:12:00;;;;;;;12.77;7.60;;;;;;;;;;5114003;28;20032;-56
2021/04/18 14:14:27;;;;;;;14.40;7.23;;;;;;;;;;5113835;28;20028;-56
2021/04/18 14:16:54;;;;;;;14.47;6.87;;;;;;;;;;5113955;28;20023;-56
2021/04/18 14:19:21;;;;;;;10.97;6.33;;;;;;;;;;5113761;28;20026;-56
2021/04/18 14:21:47;;;;;;;14.77;5.67;;;;;;;;;;5113805;28;20034;-56
2021/04/18 14:24:14;;;;;;;11.17;5.80;;;;;;;;;;5095513;28;20554;-56
2021/04/18 14:26:41;;;;;;;12.70;6.20;;;;;;;;;;5113711;28;20020;-56
2021/04/18 14:29:08;;;;;;;16.97;6.97;;;;;;;;;;5113957;28;20035;-56
2021/04/18 14:31:35;;;;;;;15.40;7.50;;;;;;;;;;5113683;28;20035;-56
2021/04/18 14:34:02;;;;;;;21.30;12.10;;;;;;;;;;5113641;28;20040;-56
2021/04/18 14:36:29;;;;;;;21.67;10.93;;;;;;;;;;5113617;28;20047;-56
2021/04/18 14:39:00;;;;;;;26.20;13.53;;;;;;;;;;5113453;28;20027;-56
2021/04/18 14:41:27;;;;;;;27.00;12.60;;;;;;;;;;5113596;28;20016;-56
2021/04/18 14:43:54;;;;;;;25.27;11.27;;;;;;;;;;5113472;28;20035;-56